4A9 weather

Isbell Field
Fort Payne, Alabama, United States

Public forecast

Using degrees Fahrenheit for public forecast. Weather courtesy of forecast.io.

Current aviation weather report (METAR) for Isbell Field

Retrieved 2019/10/23 19:35 UTC (0 seconds ago):

K4A9 231935Z AUTO 05003KT 10SM CLR 19/M02 A3015 RMK AO2 T01941024

Closest aviation forecast (TAF) to Isbell Field

Closest forecast is Lovell Field, 42.3 nm (78.3 km) NE. Retrieved 2019/10/23 18:22 UTC (50 minutes ago):

TAF KCHA 231720Z 2318/2418 VRB02KT P6SM SKC